Time;durP1;ratioP1;P1;durP2;ratioP2;P2;SDS_P1;SDS_P2;PMS_P1;PMS_P2;Temp;Humidity;BMP_temperature;BMP_pressure;BME280_temperature;BME280_humidity;BME280_pressure;Samples;Min_cycle;Max_cycle;Signal;HPM_P1;HPM_P2
2024/03/16 00:02:15;;;;;;;4.93;4.00;;;;;;;;;;4970123;28;20045;-76
2024/03/16 00:04:43;;;;;;;4.40;3.40;;;;;;;;;;4989804;28;20114;-76
2024/03/16 00:07:11;;;;;;;4.63;3.75;;;;;;;;;;4966560;28;20072;-76
2024/03/16 00:09:37;;;;;;;4.90;3.78;;;;;;;;;;4988990;28;20054;-76
2024/03/16 00:12:04;;;;;;;4.57;3.78;;;;;;;;;;4978531;28;20118;-76
2024/03/16 00:14:30;;;;;;;4.55;3.55;;;;;;;;;;4978459;28;20475;-76
2024/03/16 00:16:55;;;;;;;4.97;3.83;;;;;;;;;;4970208;28;20042;-76
2024/03/16 00:19:21;;;;;;;6.25;4.40;;;;;;;;;;4982594;28;20184;-76
2024/03/16 00:21:48;;;;;;;5.00;3.92;;;;;;;;;;4990985;28;20026;-76
2024/03/16 00:24:13;;;;;;;5.35;3.90;;;;;;;;;;4973305;28;20042;-76
2024/03/16 00:26:39;;;;;;;4.60;3.72;;;;;;;;;;4981373;28;20042;-76
2024/03/16 00:29:07;;;;;;;4.68;3.80;;;;;;;;;;4984058;28;20070;-76
2024/03/16 00:31:35;;;;;;;5.38;4.07;;;;;;;;;;4970678;28;20176;-76
2024/03/16 00:34:03;;;;;;;5.47;4.07;;;;;;;;;;4982170;28;20046;-76
2024/03/16 00:36:28;;;;;;;5.57;3.92;;;;;;;;;;4966006;28;20050;-75
2024/03/16 00:38:54;;;;;;;5.47;4.15;;;;;;;;;;4989148;28;20030;-76
2024/03/16 00:41:21;;;;;;;6.18;4.20;;;;;;;;;;4982785;28;20053;-76
2024/03/16 00:43:46;;;;;;;5.28;4.00;;;;;;;;;;4984678;28;20523;-75
2024/03/16 00:46:12;;;;;;;5.10;4.22;;;;;;;;;;4987715;28;20030;-76
2024/03/16 00:48:38;;;;;;;5.82;4.25;;;;;;;;;;4998936;28;20128;-76
2024/03/16 00:51:03;;;;;;;4.95;4.20;;;;;;;;;;4969455;28;20492;-76
2024/03/16 00:53:29;;;;;;;5.40;4.00;;;;;;;;;;4945667;28;20031;-76
2024/03/16 00:55:55;;;;;;;5.55;4.18;;;;;;;;;;4987103;28;20083;-76
2024/03/16 00:58:20;;;;;;;5.82;4.35;;;;;;;;;;4981937;28;20760;-76
2024/03/16 01:00:46;;;;;;;5.82;4.63;;;;;;;;;;4971106;28;20038;-76
2024/03/16 01:03:11;;;;;;;5.78;4.50;;;;;;;;;;4992111;28;20105;-76
2024/03/16 01:05:36;;;;;;;5.30;4.13;;;;;;;;;;4964813;28;20039;-76
2024/03/16 01:08:03;;;;;;;5.68;4.10;;;;;;;;;;4960821;28;20058;-77
2024/03/16 01:10:28;;;;;;;4.30;3.90;;;;;;;;;;4963844;28;20606;-74
2024/03/16 01:12:53;;;;;;;5.65;4.40;;;;;;;;;;4988382;28;20038;-76
2024/03/16 01:15:20;;;;;;;5.03;4.07;;;;;;;;;;4981823;28;20055;-76
2024/03/16 01:17:46;;;;;;;4.72;4.15;;;;;;;;;;4986292;28;20031;-75
2024/03/16 01:20:12;;;;;;;5.22;3.97;;;;;;;;;;4959076;28;20043;-76
2024/03/16 01:22:37;;;;;;;5.13;4.30;;;;;;;;;;4976259;28;20038;-76
2024/03/16 01:25:03;;;;;;;5.45;4.05;;;;;;;;;;4956083;28;20038;-76
2024/03/16 01:27:28;;;;;;;5.47;4.43;;;;;;;;;;4984681;28;20101;-76
2024/03/16 01:29:54;;;;;;;4.65;4.10;;;;;;;;;;4956802;28;20364;-76
2024/03/16 01:32:19;;;;;;;5.13;4.05;;;;;;;;;;4984784;28;20326;-75
2024/03/16 01:34:44;;;;;;;6.18;4.05;;;;;;;;;;4957521;28;20027;-76
2024/03/16 01:37:13;;;;;;;5.85;4.30;;;;;;;;;;4982290;28;20058;-76
2024/03/16 01:39:39;;;;;;;5.20;4.28;;;;;;;;;;4969780;28;20064;-76
2024/03/16 01:42:06;;;;;;;5.13;4.10;;;;;;;;;;4965777;28;20113;-76
2024/03/16 01:44:31;;;;;;;5.85;4.35;;;;;;;;;;4979372;28;20041;-76
2024/03/16 01:46:56;;;;;;;4.90;4.40;;;;;;;;;;4985165;28;20715;-76
2024/03/16 01:49:22;;;;;;;5.75;4.63;;;;;;;;;;4961043;28;20560;-76
2024/03/16 01:51:47;;;;;;;6.30;4.50;;;;;;;;;;4962488;28;20038;-76
2024/03/16 01:54:13;;;;;;;5.82;4.18;;;;;;;;;;4986853;28;20038;-77
2024/03/16 01:56:39;;;;;;;5.15;4.10;;;;;;;;;;4977373;28;20069;-76
2024/03/16 01:59:04;;;;;;;5.82;4.32;;;;;;;;;;4977637;28;20065;-74
2024/03/16 02:01:30;;;;;;;5.45;4.45;;;;;;;;;;4978369;28;20054;-75
2024/03/16 02:03:57;;;;;;;5.65;4.22;;;;;;;;;;4962796;28;20039;-74
2024/03/16 02:06:23;;;;;;;5.55;4.35;;;;;;;;;;4960481;28;20132;-75
2024/03/16 02:08:49;;;;;;;5.15;4.05;;;;;;;;;;4970923;28;20352;-75
2024/03/16 02:11:15;;;;;;;5.38;4.20;;;;;;;;;;4985597;28;20670;-75
2024/03/16 02:13:40;;;;;;;6.50;4.20;;;;;;;;;;4982275;28;20171;-77
2024/03/16 02:16:05;;;;;;;5.15;4.40;;;;;;;;;;4959802;28;20076;-76
2024/03/16 02:18:31;;;;;;;5.63;4.35;;;;;;;;;;4979544;28;20039;-76
2024/03/16 02:20:56;;;;;;;5.28;3.97;;;;;;;;;;4971135;28;20054;-75
2024/03/16 02:23:22;;;;;;;5.53;4.45;;;;;;;;;;4965281;28;20468;-76
2024/03/16 02:25:47;;;;;;;5.53;4.22;;;;;;;;;;4963411;28;20046;-76
2024/03/16 02:28:12;;;;;;;6.10;4.38;;;;;;;;;;4960964;28;20047;-75
2024/03/16 02:30:38;;;;;;;5.32;4.13;;;;;;;;;;4988194;28;20038;-76
2024/03/16 02:33:06;;;;;;;5.28;4.40;;;;;;;;;;4966100;28;20053;-75
2024/03/16 02:35:32;;;;;;;5.50;4.05;;;;;;;;;;4970980;28;20154;-76
2024/03/16 02:37:58;;;;;;;5.07;4.18;;;;;;;;;;4976203;28;20512;-75
2024/03/16 02:40:23;;;;;;;5.38;3.95;;;;;;;;;;4965285;28;20070;-76
2024/03/16 02:42:48;;;;;;;6.05;4.15;;;;;;;;;;4972094;28;20130;-76
2024/03/16 02:45:13;;;;;;;4.80;4.20;;;;;;;;;;4971149;28;20094;-75
2024/03/16 02:47:39;;;;;;;5.63;4.30;;;;;;;;;;4969068;28;20073;-75
2024/03/16 02:50:04;;;;;;;5.50;4.13;;;;;;;;;;4972144;28;20469;-76
2024/03/16 02:52:31;;;;;;;5.45;4.15;;;;;;;;;;4990315;28;20050;-75
2024/03/16 02:54:56;;;;;;;5.40;4.20;;;;;;;;;;4988568;28;20148;-75
2024/03/16 02:57:22;;;;;;;5.40;4.03;;;;;;;;;;4980919;28;20046;-75
2024/03/16 02:59:47;;;;;;;4.40;3.92;;;;;;;;;;4966190;28;20073;-76
2024/03/16 03:02:13;;;;;;;5.15;4.10;;;;;;;;;;4988873;28;20050;-76
2024/03/16 03:04:39;;;;;;;5.55;4.10;;;;;;;;;;4981660;28;20018;-76
2024/03/16 03:07:04;;;;;;;4.90;4.28;;;;;;;;;;4957034;28;20484;-76
2024/03/16 03:09:31;;;;;;;5.03;4.13;;;;;;;;;;4977206;28;20068;-76
2024/03/16 03:11:57;;;;;;;4.72;4.15;;;;;;;;;;4972958;28;20578;-76
2024/03/16 03:14:22;;;;;;;5.03;4.05;;;;;;;;;;4987015;28;20030;-76
2024/03/16 03:16:47;;;;;;;5.40;4.25;;;;;;;;;;4974927;28;20038;-76
2024/03/16 03:19:13;;;;;;;6.38;4.88;;;;;;;;;;4967518;28;20089;-76
2024/03/16 03:21:38;;;;;;;5.95;4.53;;;;;;;;;;4981730;28;20034;-75
2024/03/16 03:24:03;;;;;;;5.70;4.63;;;;;;;;;;4970622;28;20094;-75
2024/03/16 03:26:29;;;;;;;6.03;4.15;;;;;;;;;;4987873;28;20195;-75
2024/03/16 03:28:54;;;;;;;5.05;4.32;;;;;;;;;;4989293;28;20026;-75
2024/03/16 03:31:20;;;;;;;4.55;3.88;;;;;;;;;;4990574;28;20034;-74
2024/03/16 03:33:45;;;;;;;5.25;4.50;;;;;;;;;;4989886;28;20030;-75
2024/03/16 03:36:10;;;;;;;5.47;4.07;;;;;;;;;;4980659;28;20060;-74
2024/03/16 03:38:36;;;;;;;5.13;4.18;;;;;;;;;;4971003;28;20118;-75
2024/03/16 03:41:01;;;;;;;5.57;4.38;;;;;;;;;;4973617;28;20057;-75
2024/03/16 03:43:26;;;;;;;4.88;4.28;;;;;;;;;;4972573;28;20194;-75
2024/03/16 03:45:53;;;;;;;5.13;4.13;;;;;;;;;;4965895;28;20483;-75
2024/03/16 03:50:49;;;;;;;4.95;4.15;;;;;;;;;;4990550;28;20038;-75
2024/03/16 03:53:18;;;;;;;4.95;4.38;;;;;;;;;;4987383;28;20053;-74
2024/03/16 03:55:43;;;;;;;4.53;3.72;;;;;;;;;;4962662;28;20051;-75
2024/03/16 03:58:09;;;;;;;5.28;4.10;;;;;;;;;;4959416;28;20053;-75
2024/03/16 04:00:34;;;;;;;4.90;3.90;;;;;;;;;;4967353;28;20031;-74
2024/03/16 04:03:00;;;;;;;4.50;3.80;;;;;;;;;;4988386;28;20100;-74
2024/03/16 04:05:26;;;;;;;5.55;4.03;;;;;;;;;;4989493;28;20035;-76
2024/03/16 04:07:52;;;;;;;6.05;4.47;;;;;;;;;;4968522;28;20034;-75
2024/03/16 04:10:17;;;;;;;5.63;4.50;;;;;;;;;;4988195;28;20045;-75
2024/03/16 04:12:43;;;;;;;5.50;4.22;;;;;;;;;;4972170;28;20054;-75
2024/03/16 04:15:08;;;;;;;4.85;3.80;;;;;;;;;;4989678;28;20097;-75
2024/03/16 04:17:33;;;;;;;5.18;3.97;;;;;;;;;;4989305;28;20054;-75
2024/03/16 04:19:59;;;;;;;6.10;4.22;;;;;;;;;;4967082;28;20031;-75
2024/03/16 04:22:24;;;;;;;5.43;4.28;;;;;;;;;;4971273;28;20037;-75
2024/03/16 04:24:49;;;;;;;5.65;4.43;;;;;;;;;;4989211;28;20046;-74
2024/03/16 04:27:14;;;;;;;5.40;4.13;;;;;;;;;;4990352;28;20100;-74
2024/03/16 04:29:40;;;;;;;5.55;4.20;;;;;;;;;;4989709;28;20117;-74
2024/03/16 04:32:05;;;;;;;4.95;4.00;;;;;;;;;;4978939;28;20045;-74
2024/03/16 04:34:31;;;;;;;4.75;4.20;;;;;;;;;;4967483;28;20030;-75
2024/03/16 04:36:56;;;;;;;5.43;4.10;;;;;;;;;;4973615;28;20034;-75
2024/03/16 04:39:22;;;;;;;4.85;4.10;;;;;;;;;;4963760;28;20039;-75
2024/03/16 04:41:48;;;;;;;5.72;4.07;;;;;;;;;;4990721;28;20112;-75
2024/03/16 04:44:13;;;;;;;5.18;4.22;;;;;;;;;;4959597;28;20109;-75
2024/03/16 04:46:39;;;;;;;5.32;4.38;;;;;;;;;;4969647;28;20042;-75
2024/03/16 04:49:04;;;;;;;4.82;3.92;;;;;;;;;;4973067;28;20595;-75
2024/03/16 04:51:30;;;;;;;4.45;3.88;;;;;;;;;;4988789;28;20041;-75
2024/03/16 04:53:56;;;;;;;7.40;4.60;;;;;;;;;;4978462;28;20537;-76
2024/03/16 04:56:22;;;;;;;6.95;4.05;;;;;;;;;;4968950;28;20546;-75
2024/03/16 04:58:48;;;;;;;4.65;3.95;;;;;;;;;;4974708;28;20045;-76
2024/03/16 05:01:13;;;;;;;5.97;3.97;;;;;;;;;;4967929;28;20481;-76
2024/03/16 05:03:38;;;;;;;4.93;4.13;;;;;;;;;;4994022;28;20105;-75
2024/03/16 05:06:04;;;;;;;4.75;3.72;;;;;;;;;;4985968;28;20081;-76
2024/03/16 05:08:29;;;;;;;4.82;3.95;;;;;;;;;;4968540;28;20034;-75
2024/03/16 05:10:55;;;;;;;4.68;4.05;;;;;;;;;;4966373;28;20113;-76
2024/03/16 05:13:20;;;;;;;4.95;4.00;;;;;;;;;;4985827;28;20120;-75
2024/03/16 05:15:45;;;;;;;5.38;3.90;;;;;;;;;;4990749;28;20038;-75
2024/03/16 05:18:14;;;;;;;4.43;3.40;;;;;;;;;;4968386;28;20031;-75
2024/03/16 05:20:39;;;;;;;5.35;3.90;;;;;;;;;;4966517;28;20031;-75
2024/03/16 05:23:05;;;;;;;4.93;3.75;;;;;;;;;;4983063;28;20038;-75
2024/03/16 05:25:30;;;;;;;4.40;3.60;;;;;;;;;;4990270;28;20039;-76
2024/03/16 05:27:55;;;;;;;5.00;3.60;;;;;;;;;;4985853;28;20475;-76
2024/03/16 05:30:21;;;;;;;4.82;3.53;;;;;;;;;;4967685;28;20038;-75
2024/03/16 05:32:46;;;;;;;5.70;3.50;;;;;;;;;;4967947;28;20439;-75
2024/03/16 05:35:12;;;;;;;5.50;4.00;;;;;;;;;;4989523;28;20483;-75
2024/03/16 05:37:37;;;;;;;4.68;3.65;;;;;;;;;;4988358;28;20420;-76
2024/03/16 05:40:04;;;;;;;4.47;3.72;;;;;;;;;;4990705;28;20032;-77
2024/03/16 05:42:30;;;;;;;4.40;3.40;;;;;;;;;;4987985;28;20026;-75
2024/03/16 05:44:57;;;;;;;4.18;3.53;;;;;;;;;;4978445;28;20035;-75
2024/03/16 05:47:23;;;;;;;4.60;3.63;;;;;;;;;;4996592;28;20073;-75
2024/03/16 05:49:48;;;;;;;4.80;3.47;;;;;;;;;;4993933;28;20495;-76
2024/03/16 05:52:14;;;;;;;4.65;3.65;;;;;;;;;;4964492;28;20031;-75
2024/03/16 05:54:39;;;;;;;5.40;3.83;;;;;;;;;;4969739;28;20034;-75
2024/03/16 05:57:05;;;;;;;4.72;3.67;;;;;;;;;;4983894;28;20053;-76
2024/03/16 05:59:30;;;;;;;4.22;3.30;;;;;;;;;;4986502;28;20048;-75
2024/03/16 06:01:56;;;;;;;4.90;3.70;;;;;;;;;;4985288;28;20134;-76
2024/03/16 06:04:21;;;;;;;3.67;3.30;;;;;;;;;;4966808;28;20508;-76
2024/03/16 06:06:47;;;;;;;4.22;3.45;;;;;;;;;;4986488;28;20026;-76
2024/03/16 06:09:12;;;;;;;4.18;3.47;;;;;;;;;;4968789;28;20026;-76
2024/03/16 06:11:37;;;;;;;6.60;3.78;;;;;;;;;;4968145;28;20096;-76
2024/03/16 06:14:04;;;;;;;4.90;3.55;;;;;;;;;;4978139;28;20026;-75
2024/03/16 06:16:30;;;;;;;4.45;3.33;;;;;;;;;;4992001;28;20423;-75
2024/03/16 06:18:55;;;;;;;5.18;3.67;;;;;;;;;;4993090;28;20037;-76
2024/03/16 06:21:20;;;;;;;4.60;3.70;;;;;;;;;;4992845;28;20069;-76
2024/03/16 06:23:48;;;;;;;4.72;3.17;;;;;;;;;;4988458;28;20692;-76
2024/03/16 06:26:17;;;;;;;4.43;3.30;;;;;;;;;;4992451;28;20551;-76
2024/03/16 06:28:46;;;;;;;3.77;3.20;;;;;;;;;;4975872;28;20038;-76
2024/03/16 06:31:12;;;;;;;4.03;3.57;;;;;;;;;;4975172;28;20305;-77
2024/03/16 06:33:44;;;;;;;5.10;3.55;;;;;;;;;;4964451;28;20046;-76
2024/03/16 06:36:10;;;;;;;4.32;3.60;;;;;;;;;;4982448;28;20073;-76
2024/03/16 06:38:35;;;;;;;4.38;3.38;;;;;;;;;;4984731;28;20160;-75
2024/03/16 06:41:01;;;;;;;4.60;3.40;;;;;;;;;;4966018;28;20514;-76
2024/03/16 06:43:26;;;;;;;4.65;3.47;;;;;;;;;;4983708;28;20570;-78
2024/03/16 06:45:52;;;;;;;4.30;3.38;;;;;;;;;;4983745;28;20152;-78
2024/03/16 06:48:18;;;;;;;4.60;3.75;;;;;;;;;;4970713;28;20133;-78
2024/03/16 06:50:48;;;;;;;4.68;3.70;;;;;;;;;;4983455;28;20127;-77
2024/03/16 06:53:14;;;;;;;4.15;3.30;;;;;;;;;;4966092;28;20054;-82
2024/03/16 06:55:39;;;;;;;4.38;3.90;;;;;;;;;;4985596;28;20313;-78
2024/03/16 06:58:05;;;;;;;4.45;3.60;;;;;;;;;;4961818;28;20034;-77
2024/03/16 07:00:30;;;;;;;5.45;3.72;;;;;;;;;;4951276;28;22133;-76
2024/03/16 07:02:56;;;;;;;4.65;3.55;;;;;;;;;;4978973;28;20039;-74
2024/03/16 07:05:21;;;;;;;5.05;3.65;;;;;;;;;;4980138;28;20061;-74
2024/03/16 07:07:46;;;;;;;4.05;3.50;;;;;;;;;;4979390;28;20053;-74
2024/03/16 07:10:12;;;;;;;5.85;3.33;;;;;;;;;;4945889;28;20039;-77
2024/03/16 07:12:37;;;;;;;4.38;3.47;;;;;;;;;;4962600;28;20041;-75
2024/03/16 07:15:05;;;;;;;4.10;3.25;;;;;;;;;;4979365;28;20054;-77
2024/03/16 07:17:31;;;;;;;4.05;3.25;;;;;;;;;;4967645;28;20049;-77
2024/03/16 07:19:56;;;;;;;3.90;3.22;;;;;;;;;;4981889;28;20031;-78
2024/03/16 07:22:22;;;;;;;3.70;3.03;;;;;;;;;;4966659;28;20041;-80
2024/03/16 07:24:49;;;;;;;4.47;3.47;;;;;;;;;;4981672;28;20038;-80
2024/03/16 07:27:14;;;;;;;4.47;3.20;;;;;;;;;;4964364;28;20120;-78
2024/03/16 07:29:40;;;;;;;4.45;3.45;;;;;;;;;;4982652;28;20034;-77
2024/03/16 07:32:06;;;;;;;6.65;3.45;;;;;;;;;;4982564;28;20046;-76
2024/03/16 07:34:33;;;;;;;4.55;3.13;;;;;;;;;;4966321;28;20045;-77
2024/03/16 07:36:59;;;;;;;4.38;3.33;;;;;;;;;;4983094;28;20095;-75
2024/03/16 07:39:24;;;;;;;4.18;3.40;;;;;;;;;;4980157;28;20038;-75
2024/03/16 07:41:49;;;;;;;4.10;3.20;;;;;;;;;;4982505;28;20490;-75
2024/03/16 07:44:15;;;;;;;4.43;2.90;;;;;;;;;;4981152;28;20031;-74
2024/03/16 07:46:40;;;;;;;3.83;3.10;;;;;;;;;;4978953;28;20034;-77
2024/03/16 07:49:05;;;;;;;4.13;3.33;;;;;;;;;;4981376;28;20035;-79
2024/03/16 07:51:31;;;;;;;4.30;3.22;;;;;;;;;;4967768;28;20127;-82
2024/03/16 07:53:57;;;;;;;3.75;3.13;;;;;;;;;;4984833;28;20031;-81
2024/03/16 07:56:23;;;;;;;3.80;3.10;;;;;;;;;;4983048;28;20038;-77
2024/03/16 07:58:49;;;;;;;3.88;3.47;;;;;;;;;;4965261;28;20461;-78
2024/03/16 08:01:15;;;;;;;4.10;2.95;;;;;;;;;;4983326;28;20045;-76
2024/03/16 08:03:42;;;;;;;3.83;3.30;;;;;;;;;;4979694;28;20050;-76
2024/03/16 08:06:07;;;;;;;3.90;3.08;;;;;;;;;;4964158;28;20129;-78
2024/03/16 08:08:33;;;;;;;4.40;3.30;;;;;;;;;;4978832;28;20616;-79
2024/03/16 08:10:58;;;;;;;4.03;3.10;;;;;;;;;;4963177;28;20041;-78
2024/03/16 08:13:23;;;;;;;4.00;3.40;;;;;;;;;;4962644;28;20049;-78
2024/03/16 08:15:49;;;;;;;3.85;3.17;;;;;;;;;;4982205;28;20057;-77
2024/03/16 08:18:14;;;;;;;3.85;3.17;;;;;;;;;;4985787;28;20029;-79
2024/03/16 08:20:40;;;;;;;4.32;3.20;;;;;;;;;;4983516;28;20049;-80
2024/03/16 08:23:05;;;;;;;4.38;3.55;;;;;;;;;;4985438;28;20041;-80
2024/03/16 08:25:32;;;;;;;4.40;3.42;;;;;;;;;;4964994;28;20034;-80
2024/03/16 08:27:57;;;;;;;3.95;3.10;;;;;;;;;;4979093;28;20026;-80
2024/03/16 08:30:25;;;;;;;3.97;3.20;;;;;;;;;;4967498;28;20034;-85
2024/03/16 08:32:51;;;;;;;4.28;3.58;;;;;;;;;;4967923;28;20068;-80
2024/03/16 08:35:16;;;;;;;5.70;3.30;;;;;;;;;;4980548;28;20067;-80
2024/03/16 08:37:42;;;;;;;3.92;3.13;;;;;;;;;;4985717;28;20050;-77
2024/03/16 08:40:11;;;;;;;3.97;3.50;;;;;;;;;;4984088;28;20022;-77
2024/03/16 08:42:40;;;;;;;4.05;3.20;;;;;;;;;;4982980;28;20415;-77
2024/03/16 08:45:07;;;;;;;4.20;3.15;;;;;;;;;;4982283;28;20263;-76
2024/03/16 08:47:32;;;;;;;4.38;3.33;;;;;;;;;;4981078;28;20030;-77
2024/03/16 08:50:00;;;;;;;5.03;3.13;;;;;;;;;;4982817;28;20129;-76
2024/03/16 08:52:26;;;;;;;3.50;3.00;;;;;;;;;;4980631;28;21701;-76
2024/03/16 08:54:55;;;;;;;3.40;2.95;;;;;;;;;;4981745;28;20038;-77
2024/03/16 08:57:21;;;;;;;5.78;3.25;;;;;;;;;;4981000;28;20117;-75
2024/03/16 08:59:46;;;;;;;4.45;3.45;;;;;;;;;;4982937;28;20125;-75
2024/03/16 09:02:12;;;;;;;4.63;3.25;;;;;;;;;;4981049;28;20538;-76
2024/03/16 09:04:37;;;;;;;6.10;3.88;;;;;;;;;;4978331;28;20030;-76
2024/03/16 09:07:03;;;;;;;3.40;3.08;;;;;;;;;;4983607;28;20034;-76
2024/03/16 09:09:28;;;;;;;5.13;3.47;;;;;;;;;;4984140;28;20494;-77
2024/03/16 09:11:53;;;;;;;4.28;3.35;;;;;;;;;;4962078;28;20039;-76
2024/03/16 09:14:19;;;;;;;3.90;2.90;;;;;;;;;;4986247;28;20140;-76
2024/03/16 09:16:44;;;;;;;5.97;3.65;;;;;;;;;;4986062;28;20054;-76
2024/03/16 09:19:09;;;;;;;4.30;2.90;;;;;;;;;;4985996;28;20050;-76
2024/03/16 09:21:35;;;;;;;3.92;3.05;;;;;;;;;;4967561;28;20045;-76
2024/03/16 09:24:00;;;;;;;3.42;3.13;;;;;;;;;;4985048;28;20042;-76
2024/03/16 09:26:25;;;;;;;5.00;3.03;;;;;;;;;;4983399;28;20041;-76
2024/03/16 09:28:51;;;;;;;5.22;3.13;;;;;;;;;;4985479;28;20045;-77
2024/03/16 09:31:16;;;;;;;4.00;3.17;;;;;;;;;;4981221;28;20050;-76
2024/03/16 09:33:42;;;;;;;4.55;3.22;;;;;;;;;;4985478;28;20142;-76
2024/03/16 09:36:09;;;;;;;4.13;3.42;;;;;;;;;;4987320;28;20129;-76
2024/03/16 09:38:34;;;;;;;4.90;3.58;;;;;;;;;;4980648;28;20050;-76
2024/03/16 09:41:00;;;;;;;3.90;3.25;;;;;;;;;;4981049;28;20599;-77
2024/03/16 09:43:25;;;;;;;3.22;2.90;;;;;;;;;;4983545;28;20507;-76
2024/03/16 09:45:52;;;;;;;3.92;3.25;;;;;;;;;;4979216;28;20049;-76
2024/03/16 09:48:18;;;;;;;6.05;3.03;;;;;;;;;;4971103;28;20135;-76
2024/03/16 09:50:44;;;;;;;3.63;3.10;;;;;;;;;;4983703;28;20500;-76
2024/03/16 09:53:11;;;;;;;3.90;3.10;;;;;;;;;;4972111;28;20075;-76
2024/03/16 09:55:36;;;;;;;3.30;3.00;;;;;;;;;;4970381;28;20037;-76
2024/03/16 09:58:03;;;;;;;4.82;3.53;;;;;;;;;;4992186;28;20003;-76
2024/03/16 10:00:31;;;;;;;4.20;3.55;;;;;;;;;;4989542;28;20029;-76
2024/03/16 10:02:57;;;;;;;4.90;3.22;;;;;;;;;;4970104;28;20113;-76
2024/03/16 10:05:23;;;;;;;3.75;3.00;;;;;;;;;;4975011;28;20018;-76
2024/03/16 10:07:49;;;;;;;3.90;3.30;;;;;;;;;;4992157;28;20332;-76
2024/03/16 10:10:15;;;;;;;3.88;3.17;;;;;;;;;;4992007;28;20033;-76
2024/03/16 10:12:43;;;;;;;3.25;2.95;;;;;;;;;;4996589;28;20026;-76
2024/03/16 10:15:09;;;;;;;3.47;3.08;;;;;;;;;;4981128;28;20057;-75
2024/03/16 10:17:37;;;;;;;3.33;2.78;;;;;;;;;;4972027;28;20038;-76
2024/03/16 10:20:07;;;;;;;3.15;2.85;;;;;;;;;;4981882;28;20042;-76
2024/03/16 10:22:34;;;;;;;4.10;3.40;;;;;;;;;;4983023;28;20045;-75
2024/03/16 10:24:59;;;;;;;3.88;3.33;;;;;;;;;;4982561;28;20034;-76
2024/03/16 10:27:25;;;;;;;3.60;3.00;;;;;;;;;;4981543;28;20423;-76
2024/03/16 10:29:50;;;;;;;3.85;3.15;;;;;;;;;;4984332;28;20030;-76
2024/03/16 10:32:16;;;;;;;3.58;3.03;;;;;;;;;;4983666;28;20149;-76
2024/03/16 10:34:41;;;;;;;3.50;3.00;;;;;;;;;;4965983;28;21678;-76
2024/03/16 10:37:06;;;;;;;4.57;3.25;;;;;;;;;;4982907;28;20066;-76
2024/03/16 10:39:34;;;;;;;3.92;3.00;;;;;;;;;;4964700;28;20031;-76
2024/03/16 10:41:59;;;;;;;4.40;3.28;;;;;;;;;;4963400;28;20050;-76
2024/03/16 10:44:24;;;;;;;3.72;3.10;;;;;;;;;;4980256;28;20073;-76
2024/03/16 10:46:50;;;;;;;3.97;2.90;;;;;;;;;;4962637;28;20039;-76
2024/03/16 10:49:17;;;;;;;4.85;3.05;;;;;;;;;;4981458;28;20050;-76
2024/03/16 10:51:44;;;;;;;3.90;3.05;;;;;;;;;;4982850;28;20056;-76
2024/03/16 10:54:11;;;;;;;4.18;3.10;;;;;;;;;;4982173;28;20062;-76
2024/03/16 10:56:38;;;;;;;4.32;2.78;;;;;;;;;;4979205;28;20080;-76
2024/03/16 10:59:05;;;;;;;4.15;3.15;;;;;;;;;;4964771;28;20044;-76
2024/03/16 11:01:32;;;;;;;3.92;2.90;;;;;;;;;;4981261;28;20057;-77
2024/03/16 11:04:01;;;;;;;4.25;3.20;;;;;;;;;;4967053;28;20097;-77
2024/03/16 11:06:26;;;;;;;3.83;3.03;;;;;;;;;;4984230;28;20168;-76
2024/03/16 11:08:52;;;;;;;4.50;3.28;;;;;;;;;;4982929;28;20043;-76
2024/03/16 11:11:27;;;;;;;3.53;3.05;;;;;;;;;;4982094;28;21772;-76
2024/03/16 11:14:16;;;;;;;3.80;2.97;;;;;;;;;;4983199;28;20033;-76
2024/03/16 11:16:46;;;;;;;3.55;2.90;;;;;;;;;;4981385;28;20053;-76
2024/03/16 11:19:20;;;;;;;3.33;2.95;;;;;;;;;;4962530;28;20065;-77
2024/03/16 11:21:49;;;;;;;3.90;3.17;;;;;;;;;;4982511;28;20041;-76
2024/03/16 11:24:16;;;;;;;3.75;2.90;;;;;;;;;;4980458;28;20030;-75
2024/03/16 11:26:43;;;;;;;3.85;2.88;;;;;;;;;;4980183;28;20050;-76
2024/03/16 11:29:18;;;;;;;3.38;2.92;;;;;;;;;;4979849;28;20042;-76
2024/03/16 11:31:48;;;;;;;3.42;2.85;;;;;;;;;;4961699;28;20038;-76
2024/03/16 11:34:14;;;;;;;2.85;2.55;;;;;;;;;;4978771;28;20092;-77
2024/03/16 11:36:59;;;;;;;3.05;2.65;;;;;;;;;;4990538;28;20050;-76
2024/03/16 11:39:24;;;;;;;4.00;2.97;;;;;;;;;;4977807;28;20142;-76
2024/03/16 11:41:50;;;;;;;3.70;2.95;;;;;;;;;;4990848;28;20037;-75
2024/03/16 11:44:16;;;;;;;4.15;3.00;;;;;;;;;;4978204;28;20037;-76
2024/03/16 11:46:44;;;;;;;3.92;2.80;;;;;;;;;;4974395;28;20030;-76
2024/03/16 11:49:10;;;;;;;3.55;3.03;;;;;;;;;;4963798;28;20472;-76
2024/03/16 11:51:36;;;;;;;3.53;2.88;;;;;;;;;;4991255;28;20097;-76
2024/03/16 11:54:01;;;;;;;3.28;2.75;;;;;;;;;;4986536;28;20506;-76
2024/03/16 11:56:27;;;;;;;3.15;2.67;;;;;;;;;;4987521;28;20040;-76
2024/03/16 11:58:53;;;;;;;3.22;2.70;;;;;;;;;;4988865;28;20070;-76
2024/03/16 12:01:21;;;;;;;3.70;2.88;;;;;;;;;;4982356;28;20081;-76
2024/03/16 12:03:48;;;;;;;3.97;2.83;;;;;;;;;;4982855;28;20057;-76
2024/03/16 12:06:13;;;;;;;4.10;2.80;;;;;;;;;;4959912;28;20027;-76
2024/03/16 12:08:38;;;;;;;3.13;2.80;;;;;;;;;;4985967;28;20041;-75
2024/03/16 12:11:05;;;;;;;4.15;3.10;;;;;;;;;;4969070;28;20029;-76
2024/03/16 12:13:31;;;;;;;3.53;2.75;;;;;;;;;;4980919;28;20061;-76
2024/03/16 12:15:56;;;;;;;3.28;2.53;;;;;;;;;;4980150;28;20550;-76
2024/03/16 12:18:22;;;;;;;2.97;2.63;;;;;;;;;;4985868;28;20029;-76
2024/03/16 12:20:48;;;;;;;3.45;2.60;;;;;;;;;;4972329;28;20026;-76
2024/03/16 12:23:13;;;;;;;3.83;2.95;;;;;;;;;;4973246;28;20116;-76
2024/03/16 12:25:38;;;;;;;3.40;2.67;;;;;;;;;;4962784;28;20038;-76
2024/03/16 12:28:05;;;;;;;4.38;3.05;;;;;;;;;;4983306;28;20035;-76
2024/03/16 12:30:33;;;;;;;3.10;2.63;;;;;;;;;;4976730;28;20026;-76
2024/03/16 12:32:58;;;;;;;3.88;2.53;;;;;;;;;;4989540;28;20041;-76
2024/03/16 12:35:27;;;;;;;3.17;2.72;;;;;;;;;;4990693;28;20038;-76
2024/03/16 12:37:53;;;;;;;3.10;2.70;;;;;;;;;;4977962;28;20054;-76
2024/03/16 12:40:19;;;;;;;3.10;2.80;;;;;;;;;;4984485;28;20487;-76
2024/03/16 12:42:44;;;;;;;3.28;2.80;;;;;;;;;;4991413;28;20547;-76
2024/03/16 12:45:10;;;;;;;3.33;2.75;;;;;;;;;;4986844;28;20059;-76
2024/03/16 12:47:35;;;;;;;3.60;2.90;;;;;;;;;;4959373;28;20039;-76
2024/03/16 12:50:00;;;;;;;3.42;2.70;;;;;;;;;;4983603;28;20449;-76
2024/03/16 12:52:26;;;;;;;3.70;2.90;;;;;;;;;;4982732;28;20046;-76
2024/03/16 12:54:51;;;;;;;3.65;2.60;;;;;;;;;;4971937;28;20474;-77
2024/03/16 12:57:17;;;;;;;3.03;2.70;;;;;;;;;;4965082;28;20042;-76
2024/03/16 12:59:43;;;;;;;2.92;2.58;;;;;;;;;;4989085;28;20767;-76
2024/03/16 13:02:08;;;;;;;3.55;2.72;;;;;;;;;;4967974;28;20038;-76
2024/03/16 13:04:33;;;;;;;2.80;2.45;;;;;;;;;;4970560;28;20030;-76
2024/03/16 13:06:59;;;;;;;3.55;2.70;;;;;;;;;;4986109;28;20221;-77
2024/03/16 13:09:25;;;;;;;3.75;2.60;;;;;;;;;;4977723;28;20057;-77
2024/03/16 13:11:52;;;;;;;3.55;2.78;;;;;;;;;;4985150;28;20575;-77
2024/03/16 13:14:17;;;;;;;3.10;2.53;;;;;;;;;;4968704;28;20508;-76
2024/03/16 13:16:43;;;;;;;3.20;2.83;;;;;;;;;;4971340;28;20066;-77
2024/03/16 13:19:11;;;;;;;3.10;2.80;;;;;;;;;;4986093;28;20035;-77
2024/03/16 13:21:36;;;;;;;3.75;2.70;;;;;;;;;;4972562;28;20044;-77
2024/03/16 13:24:02;;;;;;;2.80;2.50;;;;;;;;;;4991277;28;20034;-77
2024/03/16 13:26:30;;;;;;;4.32;2.97;;;;;;;;;;4958130;28;20042;-76
2024/03/16 13:28:56;;;;;;;3.40;2.60;;;;;;;;;;4969554;28;20483;-75
2024/03/16 13:31:21;;;;;;;3.75;2.58;;;;;;;;;;4977869;28;20046;-77
2024/03/16 13:33:46;;;;;;;3.58;2.42;;;;;;;;;;4984002;28;20026;-77
2024/03/16 13:36:13;;;;;;;3.25;2.88;;;;;;;;;;4988888;28;20039;-77
2024/03/16 13:38:40;;;;;;;3.15;2.35;;;;;;;;;;4988193;28;20121;-77
2024/03/16 13:41:06;;;;;;;2.70;2.40;;;;;;;;;;4988736;28;20045;-76
2024/03/16 13:43:33;;;;;;;3.42;2.60;;;;;;;;;;4986124;28;20030;-76
2024/03/16 13:45:58;;;;;;;3.47;2.38;;;;;;;;;;4961340;28;20042;-77
2024/03/16 13:48:24;;;;;;;3.63;2.63;;;;;;;;;;4979098;28;20035;-77
2024/03/16 13:50:49;;;;;;;3.10;2.30;;;;;;;;;;4988073;28;20597;-76
2024/03/16 13:53:17;;;;;;;2.95;2.30;;;;;;;;;;4968161;28;20031;-76
2024/03/16 13:55:43;;;;;;;3.10;2.42;;;;;;;;;;4961316;28;20092;-77
2024/03/16 13:58:09;;;;;;;3.40;2.72;;;;;;;;;;4986218;28;20030;-76
2024/03/16 14:00:34;;;;;;;2.58;2.22;;;;;;;;;;4972920;28;20038;-75
2024/03/16 14:02:59;;;;;;;3.05;2.50;;;;;;;;;;4967404;28;20424;-77
2024/03/16 14:05:25;;;;;;;3.47;2.65;;;;;;;;;;4970509;28;20488;-77
2024/03/16 14:07:50;;;;;;;3.10;2.58;;;;;;;;;;4973926;28;20129;-77
2024/03/16 14:10:16;;;;;;;3.28;2.42;;;;;;;;;;4987620;28;20102;-77
2024/03/16 14:12:44;;;;;;;3.17;2.33;;;;;;;;;;4986607;28;20034;-77
2024/03/16 14:15:09;;;;;;;2.47;2.05;;;;;;;;;;4969561;28;20038;-77
2024/03/16 14:17:35;;;;;;;3.15;2.58;;;;;;;;;;4972675;28;20045;-76
2024/03/16 14:20:00;;;;;;;2.78;2.33;;;;;;;;;;4977571;28;20423;-77
2024/03/16 14:22:25;;;;;;;3.30;2.50;;;;;;;;;;4969518;28;20036;-77
2024/03/16 14:24:51;;;;;;;3.10;2.28;;;;;;;;;;4986151;28;20050;-76
2024/03/16 14:27:16;;;;;;;3.70;2.67;;;;;;;;;;4959584;28;20482;-77
2024/03/16 14:29:42;;;;;;;3.33;2.50;;;;;;;;;;4962214;28;20041;-77
2024/03/16 14:32:07;;;;;;;2.53;2.20;;;;;;;;;;4985324;28;20034;-77
2024/03/16 14:34:33;;;;;;;3.33;2.65;;;;;;;;;;4976522;28;20445;-77
2024/03/16 14:36:58;;;;;;;3.20;2.50;;;;;;;;;;4978122;28;20121;-77
2024/03/16 14:39:27;;;;;;;2.75;2.35;;;;;;;;;;4968545;28;20459;-77